createdAt,value
2019-02-23T00:02:53.457Z,99.90
2019-02-23T00:07:49.298Z,99.90
2019-02-23T00:12:56.549Z,99.90
2019-02-23T00:17:52.167Z,99.90
2019-02-23T00:22:47.756Z,99.90
2019-02-23T00:27:42.517Z,99.90
2019-02-23T00:32:39.115Z,99.90
2019-02-23T00:37:40.256Z,99.90
2019-02-23T00:42:39.022Z,99.90
2019-02-23T00:47:35.112Z,99.90
2019-02-23T00:52:30.921Z,99.90
2019-02-23T00:57:26.332Z,99.90
2019-02-23T01:02:20.705Z,99.90
2019-02-23T01:07:31.312Z,99.90
2019-02-23T01:12:56.107Z,99.90
2019-02-23T01:17:59.568Z,99.90
2019-02-23T01:23:01.941Z,99.90
2019-02-23T01:27:59.654Z,99.90
2019-02-23T01:32:57.017Z,99.90
2019-02-23T01:37:53.566Z,99.90
2019-02-23T01:42:48.238Z,99.90
2019-02-23T01:47:42.615Z,99.90
2019-02-23T01:52:46.140Z,99.90
2019-02-23T01:57:51.068Z,99.90
2019-02-23T02:03:11.795Z,99.90
2019-02-23T02:13:38.258Z,99.90
2019-02-23T02:18:33.040Z,99.90
2019-02-23T02:23:28.373Z,99.90
2019-02-23T02:28:23.375Z,99.90
2019-02-23T02:33:19.405Z,99.90
2019-02-23T02:38:14.527Z,99.90
2019-02-23T02:43:09.872Z,99.90
2019-02-23T02:48:15.511Z,99.90
2019-02-23T02:53:11.152Z,99.90
2019-02-23T02:58:10.955Z,99.90
2019-02-23T03:03:08.656Z,99.90
2019-02-23T03:08:03.932Z,99.90
2019-02-23T03:12:59.013Z,99.90
2019-02-23T03:18:09.692Z,99.90
2019-02-23T03:23:06.821Z,99.90
2019-02-23T03:28:04.192Z,99.90
2019-02-23T03:33:00.389Z,99.90
2019-02-23T03:38:00.137Z,99.90
2019-02-23T03:43:05.389Z,99.90
2019-02-23T03:47:57.093Z,99.90
2019-02-23T03:52:51.742Z,99.90
2019-02-23T03:57:47.256Z,99.90
2019-02-23T04:02:41.874Z,99.90
2019-02-23T04:07:37.509Z,99.90
2019-02-23T04:12:32.552Z,99.90
2019-02-23T04:17:28.856Z,99.90
2019-02-23T04:22:27.350Z,99.90
2019-02-23T04:27:32.653Z,99.90
2019-02-23T04:32:40.271Z,99.90
2019-02-23T04:37:38.417Z,99.90
2019-02-23T04:42:36.647Z,99.90
2019-02-23T04:47:37.088Z,99.90
2019-02-23T04:52:33.189Z,99.90
2019-02-23T04:57:30.036Z,99.90
2019-02-23T05:02:24.988Z,99.90
2019-02-23T05:07:19.386Z,99.90
2019-02-23T05:12:17.758Z,99.90
2019-02-23T05:17:20.088Z,99.90
2019-02-23T05:22:18.960Z,99.90
2019-02-23T05:27:14.858Z,99.90
2019-02-23T05:32:16.476Z,99.90
2019-02-23T05:37:12.052Z,99.90
2019-02-23T05:42:07.229Z,99.90
2019-02-23T05:47:03.971Z,99.90
2019-02-23T05:51:59.964Z,99.90
2019-02-23T05:56:54.215Z,99.90
2019-02-23T06:01:50.539Z,99.90
2019-02-23T06:07:02.847Z,99.90
2019-02-23T06:11:57.507Z,99.90
2019-02-23T06:16:51.825Z,99.90
2019-02-23T06:21:53.761Z,99.90
2019-02-23T06:26:47.681Z,99.90
2019-02-23T06:31:53.637Z,99.90
2019-02-23T06:36:48.592Z,99.90
2019-02-23T06:41:43.101Z,99.90
2019-02-23T06:46:38.077Z,99.90
2019-02-23T06:51:32.142Z,99.90
2019-02-23T06:56:36.214Z,99.90
2019-02-23T07:01:37.279Z,99.90
2019-02-23T07:06:32.654Z,99.90
2019-02-23T07:11:27.590Z,99.90
2019-02-23T07:16:23.237Z,99.90
2019-02-23T07:21:18.330Z,99.90
2019-02-23T07:26:15.613Z,99.90
2019-02-23T07:31:16.974Z,99.90
2019-02-23T07:36:18.832Z,96.70
2019-02-23T07:41:13.921Z,92.90
2019-02-23T07:46:15.692Z,86.40
2019-02-23T07:51:13.903Z,82.30
2019-02-23T07:56:09.163Z,74.10
2019-02-23T08:01:08.644Z,74.10
2019-02-23T08:06:06.661Z,63.00
2019-02-23T08:11:01.613Z,64.90
2019-02-23T08:15:56.380Z,67.40
2019-02-23T08:20:53.869Z,58.90
2019-02-23T08:25:50.788Z,61.40
2019-02-23T08:30:48.442Z,56.40
2019-02-23T08:35:43.064Z,57.50
2019-02-23T08:40:51.256Z,54.10
2019-02-23T08:45:47.766Z,52.60
2019-02-23T08:50:48.942Z,51.50
2019-02-23T08:55:47.162Z,59.30
2019-02-23T09:00:48.805Z,68.40
2019-02-23T09:05:43.278Z,77.50
2019-02-23T09:10:39.002Z,70.70
2019-02-23T09:15:38.017Z,62.30
2019-02-23T09:20:46.303Z,52.00
2019-02-23T09:25:41.025Z,48.20
2019-02-23T09:30:37.847Z,48.20
2019-02-23T09:35:33.629Z,48.00
2019-02-23T09:40:28.647Z,49.90
2019-02-23T09:45:22.756Z,43.20
2019-02-23T09:50:18.109Z,36.40
2019-02-23T09:55:41.743Z,32.50
2019-02-23T10:00:58.996Z,30.20
2019-02-23T10:05:55.104Z,29.30
2019-02-23T10:10:50.583Z,28.80
2019-02-23T10:15:44.467Z,28.30
2019-02-23T10:20:40.873Z,27.50
2019-02-23T10:25:53.755Z,27.90
2019-02-23T10:30:49.495Z,26.90
2019-02-23T10:35:45.915Z,28.10
2019-02-23T10:40:40.963Z,27.40
2019-02-23T10:45:35.101Z,27.30
2019-02-23T10:50:31.819Z,27.30
2019-02-23T10:55:36.076Z,25.20
2019-02-23T11:00:44.142Z,24.10
2019-02-23T11:05:48.311Z,25.80
2019-02-23T11:10:51.514Z,24.60
2019-02-23T11:15:47.742Z,24.30
2019-02-23T11:20:53.214Z,24.00
2019-02-23T11:25:51.368Z,23.90
2019-02-23T11:30:48.079Z,24.40
2019-02-23T11:35:43.571Z,23.60
2019-02-23T11:40:49.529Z,24.00
2019-02-23T11:45:44.239Z,25.40
2019-02-23T11:50:42.390Z,25.10
2019-02-23T11:55:46.987Z,24.90
2019-02-23T12:01:03.854Z,25.40
2019-02-23T12:05:57.124Z,27.80
2019-02-23T12:11:18.471Z,28.20
2019-02-23T12:15:56.662Z,29.70
2019-02-23T12:20:52.566Z,31.30
2019-02-23T12:25:48.990Z,31.00
2019-02-23T12:30:43.893Z,32.40
2019-02-23T12:35:45.577Z,32.10
2019-02-23T12:40:44.122Z,35.10
2019-02-23T12:45:40.219Z,32.20
2019-02-23T12:50:34.485Z,33.40
2019-02-23T12:55:30.496Z,32.50
2019-02-23T13:00:32.624Z,32.20
2019-02-23T13:05:28.356Z,34.00
2019-02-23T13:10:23.312Z,33.80
2019-02-23T13:15:24.560Z,32.90
2019-02-23T13:20:48.588Z,35.90
2019-02-23T13:26:11.920Z,35.50
2019-02-23T13:31:26.376Z,37.50
2019-02-23T13:36:44.094Z,35.00
2019-02-23T13:41:56.878Z,36.20
2019-02-23T13:46:56.573Z,38.40
2019-02-23T13:52:02.461Z,36.90
2019-02-23T13:57:10.476Z,35.40
2019-02-23T14:02:24.507Z,35.10
2019-02-23T14:07:30.552Z,36.00
2019-02-23T14:12:38.640Z,36.20
2019-02-23T14:17:36.642Z,37.70
2019-02-23T14:22:43.535Z,36.40
2019-02-23T14:27:49.964Z,36.60
2019-02-23T14:33:04.057Z,35.40
2019-02-23T14:38:04.920Z,36.30
2019-02-23T14:43:15.296Z,36.30
2019-02-23T14:48:29.362Z,36.80
2019-02-23T14:53:46.268Z,38.10
2019-02-23T14:59:07.314Z,39.80
2019-02-23T15:04:25.222Z,41.40
2019-02-23T15:09:57.560Z,44.20
2019-02-23T15:15:12.258Z,41.40
2019-02-23T15:20:29.304Z,43.00
2019-02-23T15:31:26.455Z,47.00
2019-02-23T15:36:34.984Z,49.20
2019-02-23T15:41:55.581Z,50.80
2019-02-23T15:47:28.714Z,51.80
2019-02-23T15:52:49.653Z,54.40
2019-02-23T15:57:57.900Z,54.10
2019-02-23T16:03:05.291Z,53.90
2019-02-23T16:08:04.346Z,54.50
2019-02-23T16:13:14.429Z,55.70
2019-02-23T16:18:11.663Z,57.10
2019-02-23T16:23:14.044Z,62.50
2019-02-23T16:28:15.086Z,63.40
2019-02-23T16:33:15.067Z,60.70
2019-02-23T16:38:27.422Z,63.20
2019-02-23T16:43:50.339Z,61.40
2019-02-23T16:48:45.138Z,64.00
2019-02-23T16:53:50.050Z,64.20
2019-02-23T16:58:57.000Z,63.40
2019-02-23T17:03:57.215Z,67.60
2019-02-23T17:09:03.435Z,76.00
2019-02-23T17:14:09.423Z,90.20
2019-02-23T17:19:17.035Z,88.10
2019-02-23T17:24:12.506Z,94.00
2019-02-23T17:29:15.924Z,93.20
2019-02-23T17:34:33.224Z,88.70
2019-02-23T17:39:56.429Z,93.60
2019-02-23T17:45:12.281Z,95.00
2019-02-23T17:50:17.736Z,96.90
2019-02-23T17:55:20.940Z,98.30
2019-02-23T18:00:26.291Z,99.30
2019-02-23T18:05:28.424Z,97.10
2019-02-23T18:15:55.023Z,91.30
2019-02-23T18:21:14.070Z,85.00
2019-02-23T18:26:24.665Z,82.20
2019-02-23T18:37:00.279Z,78.20
2019-02-23T18:47:35.327Z,94.10
2019-02-23T18:52:54.434Z,96.60
2019-02-23T18:57:55.017Z,96.80
2019-02-23T19:02:54.664Z,98.10
2019-02-23T19:07:50.305Z,99.50
2019-02-23T19:12:51.326Z,99.10
2019-02-23T19:17:46.452Z,95.10
2019-02-23T19:22:41.226Z,96.30
2019-02-23T19:27:36.842Z,96.50
2019-02-23T19:32:32.187Z,98.20
2019-02-23T19:37:33.247Z,96.50
2019-02-23T19:42:30.923Z,98.70
2019-02-23T19:47:28.727Z,99.90
2019-02-23T19:52:56.896Z,99.90
2019-02-23T19:57:51.852Z,99.90
2019-02-23T20:02:48.011Z,99.90
2019-02-23T20:07:42.844Z,99.90
2019-02-23T20:12:47.821Z,99.90
2019-02-23T20:17:42.202Z,97.60
2019-02-23T20:22:51.731Z,99.90
2019-02-23T20:28:09.945Z,99.90
2019-02-23T20:33:24.401Z,99.90
2019-02-23T20:38:34.442Z,99.90
2019-02-23T20:43:39.220Z,99.90
2019-02-23T20:48:50.583Z,99.90
2019-02-23T20:53:48.099Z,99.90
2019-02-23T20:58:57.240Z,99.90
2019-02-23T21:04:05.666Z,99.90
2019-02-23T21:09:11.386Z,99.90
2019-02-23T21:14:17.782Z,99.90
2019-02-23T21:19:33.013Z,99.90
2019-02-23T21:24:35.679Z,99.90
2019-02-23T21:29:53.252Z,99.90
2019-02-23T21:34:54.648Z,99.90
2019-02-23T21:39:53.098Z,99.90
2019-02-23T21:44:58.083Z,99.90
2019-02-23T21:50:06.077Z,99.90
2019-02-23T21:55:08.917Z,99.90
2019-02-23T22:00:15.574Z,99.90
2019-02-23T22:05:12.683Z,99.90
2019-02-23T22:10:10.571Z,99.90
2019-02-23T22:15:10.061Z,99.90
2019-02-23T22:20:07.836Z,99.90
2019-02-23T22:25:24.621Z,99.90
2019-02-23T22:30:37.203Z,99.90
2019-02-23T22:35:45.426Z,99.90
2019-02-23T22:46:11.682Z,99.90
2019-02-23T22:51:12.363Z,99.90
2019-02-23T22:56:17.940Z,99.90
2019-02-23T23:01:13.386Z,99.90
2019-02-23T23:06:09.263Z,99.90
2019-02-23T23:11:08.329Z,99.90
2019-02-23T23:16:08.564Z,99.90
2019-02-23T23:21:18.588Z,99.90
2019-02-23T23:26:15.738Z,99.90
2019-02-23T23:31:23.453Z,99.90
2019-02-23T23:36:26.014Z,99.90
2019-02-23T23:41:23.310Z,99.90
2019-02-23T23:46:17.927Z,99.90
2019-02-23T23:51:20.652Z,99.90
2019-02-23T23:56:29.998Z,99.90
